Aviation Digital Data Service (ADDS)

Output produced by METARs form (0856 UTC 26 January 2020)
found at http://www.aviationweather.gov/metar/data/
 
METAR text: LEBB 260849Z VRB02KT 3000 0500SE R30/0300N R12/0175N BCFG NSC 06/06 Q1022 BECMG 7000 NSW
Conditions at: LEBB (BILBAO/SONDICA , ES) observed 0849 UTC 26 January 2020
Temperature: 6.0°C (43°F)
Dewpoint: 6.0°C (43°F) [RH = 100%]
Pressure (altimeter): 30.18 inches Hg (1022.0 mb)
Winds: variable direction winds at 2 MPH (2 knots; 1.0 m/s)
Visibility: 1.86 miles (2.99 km)
Ceiling: at least 12,000 feet AGL
Clouds: sky clear below 12,000 feet AGL
Weather: BCFG  (patches of fog)

METAR text: LEBB 260830Z VRB02KT 0100 R30/0250N R12/0100N FG VV001 05/05 Q1021 BECMG 7000 NSW
Conditions at: LEBB (BILBAO/SONDICA , ES) observed 0830 UTC 26 January 2020
Temperature: 5.0°C (41°F)
Dewpoint: 5.0°C (41°F) [RH = 100%]
Pressure (altimeter): 30.15 inches Hg (1021.0 mb)
Winds: variable direction winds at 2 MPH (2 knots; 1.0 m/s)
Visibility: 0.06 miles (0.10 km)
Ceiling: indefinite ceiling with vertical visibility of 100 feet AGL
Clouds: obscured sky
Weather: FG  (fog)

METAR text: LEBB 260800Z VRB02KT 0100 R30/0650D FG VV001 05/05 Q1021 BECMG 7000 NSW
Conditions at: LEBB (BILBAO/SONDICA , ES) observed 0800 UTC 26 January 2020
Temperature: 5.0°C (41°F)
Dewpoint: 5.0°C (41°F) [RH = 100%]
Pressure (altimeter): 30.15 inches Hg (1021.0 mb)
Winds: variable direction winds at 2 MPH (2 knots; 1.0 m/s)
Visibility: 0.06 miles (0.10 km)
Ceiling: indefinite ceiling with vertical visibility of 100 feet AGL
Clouds: obscured sky
Weather: FG  (fog)

METAR text: LEBB 260731Z 11005KT 060V140 0500 R30/P2000 FG VV001 05/05 Q1021 BECMG 7000 NSW
Conditions at: LEBB (BILBAO/SONDICA , ES) observed 0731 UTC 26 January 2020
Temperature: 5.0°C (41°F)
Dewpoint: 5.0°C (41°F) [RH = 100%]
Pressure (altimeter): 30.15 inches Hg (1021.0 mb)
Winds: from the ESE (110 degrees) at 6 MPH (5 knots; 2.6 m/s)
Visibility: 0.31 miles (0.50 km)
Ceiling: indefinite ceiling with vertical visibility of 100 feet AGL
Clouds: obscured sky
Weather: FG  (fog)

METAR text: LEBB 260730Z 12005KT 1500 0500SE BCFG FEW001 05/05 Q1021 TEMPO 1000 BCFG
Conditions at: LEBB (BILBAO/SONDICA , ES) observed 0730 UTC 26 January 2020
Temperature: 5.0°C (41°F)
Dewpoint: 5.0°C (41°F) [RH = 100%]
Pressure (altimeter): 30.15 inches Hg (1021.0 mb)
Winds: from the ESE (120 degrees) at 6 MPH (5 knots; 2.6 m/s)
Visibility: 0.93 miles (1.50 km)
Ceiling: at least 12,000 feet AGL
Clouds: few clouds at 100 feet AGL
Weather: BCFG  (patches of fog)

METAR text: LEBB 260721Z 12005KT 3000 1000SE BCFG FEW001 05/05 Q1021 TEMPO 1000 BCFG
Conditions at: LEBB (BILBAO/SONDICA , ES) observed 0721 UTC 26 January 2020
Temperature: 5.0°C (41°F)
Dewpoint: 5.0°C (41°F) [RH = 100%]
Pressure (altimeter): 30.15 inches Hg (1021.0 mb)
Winds: from the ESE (120 degrees) at 6 MPH (5 knots; 2.6 m/s)
Visibility: 1.86 miles (2.99 km)
Ceiling: at least 12,000 feet AGL
Clouds: few clouds at 100 feet AGL
Weather: BCFG  (patches of fog)

METAR text: LEBB 260700Z 09003KT 060V130 9000 NSC 05/05 Q1021 NOSIG
Conditions at: LEBB (BILBAO/SONDICA , ES) observed 0700 UTC 26 January 2020
Temperature: 5.0°C (41°F)
Dewpoint: 5.0°C (41°F) [RH = 100%]
Pressure (altimeter): 30.15 inches Hg (1021.0 mb)
Winds: from the E (90 degrees) at 3 MPH (3 knots; 1.5 m/s)
Visibility: 6 miles ( 9 km)
Ceiling: at least 12,000 feet AGL
Clouds: sky clear below 12,000 feet AGL
Weather: no significant weather observed at this time

METAR text: LEBB 260630Z VRB02KT 7000 MIFG FEW001 05/05 Q1020 TEMPO 3000 BR
Conditions at: LEBB (BILBAO/SONDICA , ES) observed 0630 UTC 26 January 2020
Temperature: 5.0°C (41°F)
Dewpoint: 5.0°C (41°F) [RH = 100%]
Pressure (altimeter): 30.12 inches Hg (1020.0 mb)
Winds: variable direction winds at 2 MPH (2 knots; 1.0 m/s)
Visibility: 4 miles ( 7 km)
Ceiling: at least 12,000 feet AGL
Clouds: few clouds at 100 feet AGL
Weather: MIFG  (shallow fog)

METAR text: LEBB 260600Z VRB02KT 7000 1300SE SCT001 05/05 Q1020 TEMPO 3000 BR
Conditions at: LEBB (BILBAO/SONDICA , ES) observed 0600 UTC 26 January 2020
Temperature: 5.0°C (41°F)
Dewpoint: 5.0°C (41°F) [RH = 100%]
Pressure (altimeter): 30.12 inches Hg (1020.0 mb)
Winds: variable direction winds at 2 MPH (2 knots; 1.0 m/s)
Visibility: 4 miles ( 7 km)
Ceiling: at least 12,000 feet AGL
Clouds: scattered clouds at 100 feet AGL
Weather: no significant weather observed at this time

METAR text: LEBB 260547Z VRB01KT 7000 1500W BCFG SCT001 05/05 Q1020 TEMPO 3000
Conditions at: LEBB (BILBAO/SONDICA , ES) observed 0547 UTC 26 January 2020
Temperature: 5.0°C (41°F)
Dewpoint: 5.0°C (41°F) [RH = 100%]
Pressure (altimeter): 30.12 inches Hg (1020.0 mb)
Winds: variable direction winds at 1 MPH (1 knots; 0.5 m/s)
Visibility: 4 miles ( 7 km)
Ceiling: at least 12,000 feet AGL
Clouds: scattered clouds at 100 feet AGL
Weather: BCFG  (patches of fog)

METAR text: LEBB 260535Z 08003KT 060V120 3000 0800 R30/0800N BCFG VV001 05/05 Q1020 TEMPO 2000 BR
Conditions at: LEBB (BILBAO/SONDICA , ES) observed 0535 UTC 26 January 2020
Temperature: 5.0°C (41°F)
Dewpoint: 5.0°C (41°F) [RH = 100%]
Pressure (altimeter): 30.12 inches Hg (1020.0 mb)
Winds: from the E (80 degrees) at 3 MPH (3 knots; 1.5 m/s)
Visibility: 1.86 miles (2.99 km)
Ceiling: indefinite ceiling with vertical visibility of 100 feet AGL
Clouds: obscured sky
Weather: BCFG  (patches of fog)

METAR text: LEBB 260530Z 08003KT 050V140 0600 R30/0800N FG VV001 06/06 Q1020 TEMPO 2000 BR
Conditions at: LEBB (BILBAO/SONDICA , ES) observed 0530 UTC 26 January 2020
Temperature: 6.0°C (43°F)
Dewpoint: 6.0°C (43°F) [RH = 100%]
Pressure (altimeter): 30.12 inches Hg (1020.0 mb)
Winds: from the E (80 degrees) at 3 MPH (3 knots; 1.5 m/s)
Visibility: 0.37 miles (0.60 km)
Ceiling: indefinite ceiling with vertical visibility of 100 feet AGL
Clouds: obscured sky
Weather: FG  (fog)

METAR text: LEBB 260505Z 09004KT 1000 R30/1900N BCFG VV001 06/06 Q1020 TEMPO 2000
Conditions at: LEBB (BILBAO/SONDICA , ES) observed 0505 UTC 26 January 2020
Temperature: 6.0°C (43°F)
Dewpoint: 6.0°C (43°F) [RH = 100%]
Pressure (altimeter): 30.12 inches Hg (1020.0 mb)
Winds: from the E (90 degrees) at 5 MPH (4 knots; 2.1 m/s)
Visibility: 0.62 miles (1.00 km)
Ceiling: indefinite ceiling with vertical visibility of 100 feet AGL
Clouds: obscured sky
Weather: BCFG  (patches of fog)

METAR text: LEBB 260500Z 08004KT 5000 1000SE BCFG NSC 06/06 Q1020 TEMPO 3000
Conditions at: LEBB (BILBAO/SONDICA , ES) observed 0500 UTC 26 January 2020
Temperature: 6.0°C (43°F)
Dewpoint: 6.0°C (43°F) [RH = 100%]
Pressure (altimeter): 30.12 inches Hg (1020.0 mb)
Winds: from the E (80 degrees) at 5 MPH (4 knots; 2.1 m/s)
Visibility: 3 miles ( 5 km)
Ceiling: at least 12,000 feet AGL
Clouds: sky clear below 12,000 feet AGL
Weather: BCFG  (patches of fog)

METAR text: LEBB 260441Z 11004KT 070V140 7000 1000SE R30/0900D BCFG R12/P2000 NSC 05/05 Q1019 TEMPO 3000
Conditions at: LEBB (BILBAO/SONDICA , ES) observed 0441 UTC 26 January 2020
Temperature: 5.0°C (41°F)
Dewpoint: 5.0°C (41°F) [RH = 100%]
Pressure (altimeter): 30.09 inches Hg (1019.0 mb)
Winds: from the ESE (110 degrees) at 5 MPH (4 knots; 2.1 m/s)
Visibility: 4 miles ( 7 km)
Ceiling: at least 12,000 feet AGL
Clouds: sky clear below 12,000 feet AGL
Weather: BCFG  (patches of fog)

METAR text: LEBB 260430Z 09003KT 070V140 9000 FEW056 06/05 Q1019
Conditions at: LEBB (BILBAO/SONDICA , ES) observed 0430 UTC 26 January 2020
Temperature: 6.0°C (43°F)
Dewpoint: 5.0°C (41°F) [RH = 93%]
Pressure (altimeter): 30.09 inches Hg (1019.0 mb)
Winds: from the E (90 degrees) at 3 MPH (3 knots; 1.5 m/s)
Visibility: 6 miles ( 9 km)
Ceiling: at least 12,000 feet AGL
Clouds: few clouds at 5600 feet AGL
Weather: no significant weather observed at this time

METAR text: LEBB 260400Z VRB02KT 9000 NSC 06/06 Q1019
Conditions at: LEBB (BILBAO/SONDICA , ES) observed 0400 UTC 26 January 2020
Temperature: 6.0°C (43°F)
Dewpoint: 6.0°C (43°F) [RH = 100%]
Pressure (altimeter): 30.09 inches Hg (1019.0 mb)
Winds: variable direction winds at 2 MPH (2 knots; 1.0 m/s)
Visibility: 6 miles ( 9 km)
Ceiling: at least 12,000 feet AGL
Clouds: sky clear below 12,000 feet AGL
Weather: no significant weather observed at this time

METAR text: LEBB 260330Z AUTO VRB02KT 8000 NSC 07/07 Q1019
Conditions at: LEBB (BILBAO/SONDICA , ES) observed 0330 UTC 26 January 2020
Temperature: 7.0°C (45°F)
Dewpoint: 7.0°C (45°F) [RH = 100%]
Pressure (altimeter): 30.09 inches Hg (1019.0 mb)
Winds: variable direction winds at 2 MPH (2 knots; 1.0 m/s)
Visibility: 5 miles ( 8 km)
Ceiling: at least 12,000 feet AGL
Clouds: sky clear below 12,000 feet AGL
Weather: no significant weather observed at this time

METAR text: LEBB 260300Z AUTO 00000KT CAVOK 08/07 Q1019
Conditions at: LEBB (BILBAO/SONDICA , ES) observed 0300 UTC 26 January 2020
Temperature: 8.0°C (46°F)
Dewpoint: 7.0°C (45°F) [RH = 93%]
Pressure (altimeter): 30.09 inches Hg (1019.0 mb)
Winds: calm
Visibility: 6 or more miles (10+ km)
Ceiling: ceiling and visibility are OK
Clouds: unknown
Weather: no significant weather observed at this time

METAR text: LEBB 260230Z AUTO 00000KT CAVOK 07/07 Q1019
Conditions at: LEBB (BILBAO/SONDICA , ES) observed 0230 UTC 26 January 2020
Temperature: 7.0°C (45°F)
Dewpoint: 7.0°C (45°F) [RH = 100%]
Pressure (altimeter): 30.09 inches Hg (1019.0 mb)
Winds: calm
Visibility: 6 or more miles (10+ km)
Ceiling: ceiling and visibility are OK
Clouds: unknown
Weather: no significant weather observed at this time

METAR text: LEBB 260200Z AUTO 00000KT CAVOK 08/08 Q1018
Conditions at: LEBB (BILBAO/SONDICA , ES) observed 0200 UTC 26 January 2020
Temperature: 8.0°C (46°F)
Dewpoint: 8.0°C (46°F) [RH = 100%]
Pressure (altimeter): 30.06 inches Hg (1018.0 mb)
Winds: calm
Visibility: 6 or more miles (10+ km)
Ceiling: ceiling and visibility are OK
Clouds: unknown
Weather: no significant weather observed at this time

METAR text: LEBB 260130Z AUTO 00000KT CAVOK 08/08 Q1018
Conditions at: LEBB (BILBAO/SONDICA , ES) observed 0130 UTC 26 January 2020
Temperature: 8.0°C (46°F)
Dewpoint: 8.0°C (46°F) [RH = 100%]
Pressure (altimeter): 30.06 inches Hg (1018.0 mb)
Winds: calm
Visibility: 6 or more miles (10+ km)
Ceiling: ceiling and visibility are OK
Clouds: unknown
Weather: no significant weather observed at this time

METAR text: LEBB 260100Z AUTO 06003KT CAVOK 08/08 Q1018
Conditions at: LEBB (BILBAO/SONDICA , ES) observed 0100 UTC 26 January 2020
Temperature: 8.0°C (46°F)
Dewpoint: 8.0°C (46°F) [RH = 100%]
Pressure (altimeter): 30.06 inches Hg (1018.0 mb)
Winds: from the ENE (60 degrees) at 3 MPH (3 knots; 1.5 m/s)
Visibility: 6 or more miles (10+ km)
Ceiling: ceiling and visibility are OK
Clouds: unknown
Weather: no significant weather observed at this time

METAR text: LEBB 260030Z AUTO VRB02KT CAVOK 08/08 Q1018
Conditions at: LEBB (BILBAO/SONDICA , ES) observed 0030 UTC 26 January 2020
Temperature: 8.0°C (46°F)
Dewpoint: 8.0°C (46°F) [RH = 100%]
Pressure (altimeter): 30.06 inches Hg (1018.0 mb)
Winds: variable direction winds at 2 MPH (2 knots; 1.0 m/s)
Visibility: 6 or more miles (10+ km)
Ceiling: ceiling and visibility are OK
Clouds: unknown
Weather: no significant weather observed at this time

METAR text: LEBB 260000Z AUTO VRB02KT 9999 SCT070 09/08 Q1018
Conditions at: LEBB (BILBAO/SONDICA , ES) observed 0000 UTC 26 January 2020
Temperature: 9.0°C (48°F)
Dewpoint: 8.0°C (46°F) [RH = 93%]
Pressure (altimeter): 30.06 inches Hg (1018.0 mb)
Winds: variable direction winds at 2 MPH (2 knots; 1.0 m/s)
Visibility: 6 or more miles (10+ km)
Ceiling: at least 12,000 feet AGL
Clouds: scattered clouds at 7000 feet AGL
Weather: no significant weather observed at this time

METAR text: LEBB 252330Z AUTO 08003KT CAVOK 09/08 Q1018
Conditions at: LEBB (BILBAO/SONDICA , ES) observed 2330 UTC 25 January 2020
Temperature: 9.0°C (48°F)
Dewpoint: 8.0°C (46°F) [RH = 93%]
Pressure (altimeter): 30.06 inches Hg (1018.0 mb)
Winds: from the E (80 degrees) at 3 MPH (3 knots; 1.5 m/s)
Visibility: 6 or more miles (10+ km)
Ceiling: ceiling and visibility are OK
Clouds: unknown
Weather: no significant weather observed at this time

METAR text: LEBB 252300Z AUTO 09003KT CAVOK 09/08 Q1018
Conditions at: LEBB (BILBAO/SONDICA , ES) observed 2300 UTC 25 January 2020
Temperature: 9.0°C (48°F)
Dewpoint: 8.0°C (46°F) [RH = 93%]
Pressure (altimeter): 30.06 inches Hg (1018.0 mb)
Winds: from the E (90 degrees) at 3 MPH (3 knots; 1.5 m/s)
Visibility: 6 or more miles (10+ km)
Ceiling: ceiling and visibility are OK
Clouds: unknown
Weather: no significant weather observed at this time

METAR text: LEBB 252230Z 08003KT 9999 BKN070 09/08 Q1018 REDZ NOSIG
Conditions at: LEBB (BILBAO/SONDICA , ES) observed 2230 UTC 25 January 2020
Temperature: 9.0°C (48°F)
Dewpoint: 8.0°C (46°F) [RH = 93%]
Pressure (altimeter): 30.06 inches Hg (1018.0 mb)
Winds: from the E (80 degrees) at 3 MPH (3 knots; 1.5 m/s)
Visibility: 6 or more miles (10+ km)
Ceiling: 7000 feet AGL
Clouds: broken clouds at 7000 feet AGL
Weather: no significant weather observed at this time

METAR text: LEBB 252200Z VRB02KT 9999 DZ BKN067 09/08 Q1018 TEMPO -DZ
Conditions at: LEBB (BILBAO/SONDICA , ES) observed 2200 UTC 25 January 2020
Temperature: 9.0°C (48°F)
Dewpoint: 8.0°C (46°F) [RH = 93%]
Pressure (altimeter): 30.06 inches Hg (1018.0 mb)
Winds: variable direction winds at 2 MPH (2 knots; 1.0 m/s)
Visibility: 6 or more miles (10+ km)
Ceiling: 6700 feet AGL
Clouds: broken clouds at 6700 feet AGL
Weather: DZ  (moderate drizzle)

METAR text: LEBB 252130Z 10004KT 060V140 9999 DZ FEW048 BKN060 09/08 Q1018 TEMPO -DZ
Conditions at: LEBB (BILBAO/SONDICA , ES) observed 2130 UTC 25 January 2020
Temperature: 9.0°C (48°F)
Dewpoint: 8.0°C (46°F) [RH = 93%]
Pressure (altimeter): 30.06 inches Hg (1018.0 mb)
Winds: from the E (100 degrees) at 5 MPH (4 knots; 2.1 m/s)
Visibility: 6 or more miles (10+ km)
Ceiling: 6000 feet AGL
Clouds: few clouds at 4800 feet AGL
broken clouds at 6000 feet AGL
Weather: DZ  (moderate drizzle)

METAR text: LEBB 252100Z 00000KT 9999 DZ SCT060 BKN070 10/08 Q1018 NOSIG
Conditions at: LEBB (BILBAO/SONDICA , ES) observed 2100 UTC 25 January 2020
Temperature: 10.0°C (50°F)
Dewpoint: 8.0°C (46°F) [RH = 87%]
Pressure (altimeter): 30.06 inches Hg (1018.0 mb)
Winds: calm
Visibility: 6 or more miles (10+ km)
Ceiling: 7000 feet AGL
Clouds: scattered clouds at 6000 feet AGL
broken clouds at 7000 feet AGL
Weather: DZ  (moderate drizzle)

METAR text: LEBB 252030Z 00000KT 9999 -DZ FEW042 SCT066 10/07 Q1018 NOSIG
Conditions at: LEBB (BILBAO/SONDICA , ES) observed 2030 UTC 25 January 2020
Temperature: 10.0°C (50°F)
Dewpoint: 7.0°C (45°F) [RH = 82%]
Pressure (altimeter): 30.06 inches Hg (1018.0 mb)
Winds: calm
Visibility: 6 or more miles (10+ km)
Ceiling: at least 12,000 feet AGL
Clouds: few clouds at 4200 feet AGL
scattered clouds at 6600 feet AGL
Weather: -DZ  (light drizzle)

METAR text: LEBB 252000Z 00000KT 9999 FEW060 10/07 Q1018 NOSIG
Conditions at: LEBB (BILBAO/SONDICA , ES) observed 2000 UTC 25 January 2020
Temperature: 10.0°C (50°F)
Dewpoint: 7.0°C (45°F) [RH = 82%]
Pressure (altimeter): 30.06 inches Hg (1018.0 mb)
Winds: calm
Visibility: 6 or more miles (10+ km)
Ceiling: at least 12,000 feet AGL
Clouds: few clouds at 6000 feet AGL
Weather: no significant weather observed at this time

METAR text: LEBB 251930Z 00000KT 9999 SCT066 11/07 Q1018 NOSIG
Conditions at: LEBB (BILBAO/SONDICA , ES) observed 1930 UTC 25 January 2020
Temperature: 11.0°C (52°F)
Dewpoint: 7.0°C (45°F) [RH = 76%]
Pressure (altimeter): 30.06 inches Hg (1018.0 mb)
Winds: calm
Visibility: 6 or more miles (10+ km)
Ceiling: at least 12,000 feet AGL
Clouds: scattered clouds at 6600 feet AGL
Weather: no significant weather observed at this time

METAR text: LEBB 251900Z 00000KT 9999 SCT066 10/07 Q1017 NOSIG
Conditions at: LEBB (BILBAO/SONDICA , ES) observed 1900 UTC 25 January 2020
Temperature: 10.0°C (50°F)
Dewpoint: 7.0°C (45°F) [RH = 82%]
Pressure (altimeter): 30.03 inches Hg (1017.0 mb)
Winds: calm
Visibility: 6 or more miles (10+ km)
Ceiling: at least 12,000 feet AGL
Clouds: scattered clouds at 6600 feet AGL
Weather: no significant weather observed at this time

METAR text: LEBB 251830Z 12003KT 9999 FEW069 11/07 Q1017 NOSIG
Conditions at: LEBB (BILBAO/SONDICA , ES) observed 1830 UTC 25 January 2020
Temperature: 11.0°C (52°F)
Dewpoint: 7.0°C (45°F) [RH = 76%]
Pressure (altimeter): 30.03 inches Hg (1017.0 mb)
Winds: from the ESE (120 degrees) at 3 MPH (3 knots; 1.5 m/s)
Visibility: 6 or more miles (10+ km)
Ceiling: at least 12,000 feet AGL
Clouds: few clouds at 6900 feet AGL
Weather: no significant weather observed at this time

METAR text: LEBB 251800Z VRB02KT 9999 FEW070 12/07 Q1017 NOSIG
Conditions at: LEBB (BILBAO/SONDICA , ES) observed 1800 UTC 25 January 2020
Temperature: 12.0°C (54°F)
Dewpoint: 7.0°C (45°F) [RH = 71%]
Pressure (altimeter): 30.03 inches Hg (1017.0 mb)
Winds: variable direction winds at 2 MPH (2 knots; 1.0 m/s)
Visibility: 6 or more miles (10+ km)
Ceiling: at least 12,000 feet AGL
Clouds: few clouds at 7000 feet AGL
Weather: no significant weather observed at this time

METAR text: LEBB 251730Z VRB02KT 9999 FEW070 12/07 Q1016 NOSIG
Conditions at: LEBB (BILBAO/SONDICA , ES) observed 1730 UTC 25 January 2020
Temperature: 12.0°C (54°F)
Dewpoint: 7.0°C (45°F) [RH = 71%]
Pressure (altimeter): 30.00 inches Hg (1016.0 mb)
Winds: variable direction winds at 2 MPH (2 knots; 1.0 m/s)
Visibility: 6 or more miles (10+ km)
Ceiling: at least 12,000 feet AGL
Clouds: few clouds at 7000 feet AGL
Weather: no significant weather observed at this time

METAR text: LEBB 251700Z 00000KT 9999 SCT060 13/07 Q1016 NOSIG
Conditions at: LEBB (BILBAO/SONDICA , ES) observed 1700 UTC 25 January 2020
Temperature: 13.0°C (55°F)
Dewpoint: 7.0°C (45°F) [RH = 67%]
Pressure (altimeter): 30.00 inches Hg (1016.0 mb)
Winds: calm
Visibility: 6 or more miles (10+ km)
Ceiling: at least 12,000 feet AGL
Clouds: scattered clouds at 6000 feet AGL
Weather: no significant weather observed at this time

METAR text: LEBB 251630Z 18003KT 120V240 9999 SCT067 13/06 Q1016 NOSIG
Conditions at: LEBB (BILBAO/SONDICA , ES) observed 1630 UTC 25 January 2020
Temperature: 13.0°C (55°F)
Dewpoint: 6.0°C (43°F) [RH = 62%]
Pressure (altimeter): 30.00 inches Hg (1016.0 mb)
Winds: from the S (180 degrees) at 3 MPH (3 knots; 1.5 m/s)
Visibility: 6 or more miles (10+ km)
Ceiling: at least 12,000 feet AGL
Clouds: scattered clouds at 6700 feet AGL
Weather: no significant weather observed at this time

METAR text: LEBB 251600Z 16006KT 120V200 9999 FEW060 13/07 Q1016 NOSIG
Conditions at: LEBB (BILBAO/SONDICA , ES) observed 1600 UTC 25 January 2020
Temperature: 13.0°C (55°F)
Dewpoint: 7.0°C (45°F) [RH = 67%]
Pressure (altimeter): 30.00 inches Hg (1016.0 mb)
Winds: from the SSE (160 degrees) at 7 MPH (6 knots; 3.1 m/s)
Visibility: 6 or more miles (10+ km)
Ceiling: at least 12,000 feet AGL
Clouds: few clouds at 6000 feet AGL
Weather: no significant weather observed at this time

METAR text: LEBB 251530Z 17006KT 140V240 9999 FEW050 14/06 Q1016 NOSIG
Conditions at: LEBB (BILBAO/SONDICA , ES) observed 1530 UTC 25 January 2020
Temperature: 14.0°C (57°F)
Dewpoint: 6.0°C (43°F) [RH = 58%]
Pressure (altimeter): 30.00 inches Hg (1016.0 mb)
Winds: from the S (170 degrees) at 7 MPH (6 knots; 3.1 m/s)
Visibility: 6 or more miles (10+ km)
Ceiling: at least 12,000 feet AGL
Clouds: few clouds at 5000 feet AGL
Weather: no significant weather observed at this time

METAR text: LEBB 251500Z 16005KT 090V240 9999 FEW046 14/06 Q1016 NOSIG
Conditions at: LEBB (BILBAO/SONDICA , ES) observed 1500 UTC 25 January 2020
Temperature: 14.0°C (57°F)
Dewpoint: 6.0°C (43°F) [RH = 58%]
Pressure (altimeter): 30.00 inches Hg (1016.0 mb)
Winds: from the SSE (160 degrees) at 6 MPH (5 knots; 2.6 m/s)
Visibility: 6 or more miles (10+ km)
Ceiling: at least 12,000 feet AGL
Clouds: few clouds at 4600 feet AGL
Weather: no significant weather observed at this time

METAR text: LEBB 251430Z 15005KT 080V230 9999 FEW046 14/06 Q1016 NOSIG
Conditions at: LEBB (BILBAO/SONDICA , ES) observed 1430 UTC 25 January 2020
Temperature: 14.0°C (57°F)
Dewpoint: 6.0°C (43°F) [RH = 58%]
Pressure (altimeter): 30.00 inches Hg (1016.0 mb)
Winds: from the SSE (150 degrees) at 6 MPH (5 knots; 2.6 m/s)
Visibility: 6 or more miles (10+ km)
Ceiling: at least 12,000 feet AGL
Clouds: few clouds at 4600 feet AGL
Weather: no significant weather observed at this time

METAR text: LEBB 251400Z 13006KT 100V160 9999 FEW065 14/07 Q1016 NOSIG
Conditions at: LEBB (BILBAO/SONDICA , ES) observed 1400 UTC 25 January 2020
Temperature: 14.0°C (57°F)
Dewpoint: 7.0°C (45°F) [RH = 63%]
Pressure (altimeter): 30.00 inches Hg (1016.0 mb)
Winds: from the SE (130 degrees) at 7 MPH (6 knots; 3.1 m/s)
Visibility: 6 or more miles (10+ km)
Ceiling: at least 12,000 feet AGL
Clouds: few clouds at 6500 feet AGL
Weather: no significant weather observed at this time

METAR text: LEBB 251330Z 17004KT 110V230 9999 FEW065 14/07 Q1016 NOSIG
Conditions at: LEBB (BILBAO/SONDICA , ES) observed 1330 UTC 25 January 2020
Temperature: 14.0°C (57°F)
Dewpoint: 7.0°C (45°F) [RH = 63%]
Pressure (altimeter): 30.00 inches Hg (1016.0 mb)
Winds: from the S (170 degrees) at 5 MPH (4 knots; 2.1 m/s)
Visibility: 6 or more miles (10+ km)
Ceiling: at least 12,000 feet AGL
Clouds: few clouds at 6500 feet AGL
Weather: no significant weather observed at this time

METAR text: LEBB 251300Z 15007KT 090V230 CAVOK 15/07 Q1017 NOSIG
Conditions at: LEBB (BILBAO/SONDICA , ES) observed 1300 UTC 25 January 2020
Temperature: 15.0°C (59°F)
Dewpoint: 7.0°C (45°F) [RH = 59%]
Pressure (altimeter): 30.03 inches Hg (1017.0 mb)
Winds: from the SSE (150 degrees) at 8 MPH (7 knots; 3.6 m/s)
Visibility: 6 or more miles (10+ km)
Ceiling: ceiling and visibility are OK
Clouds: unknown
Weather: no significant weather observed at this time

METAR text: LEBB 251230Z 14004KT 070V240 CAVOK 14/06 Q1017 NOSIG
Conditions at: LEBB (BILBAO/SONDICA , ES) observed 1230 UTC 25 January 2020
Temperature: 14.0°C (57°F)
Dewpoint: 6.0°C (43°F) [RH = 58%]
Pressure (altimeter): 30.03 inches Hg (1017.0 mb)
Winds: from the SE (140 degrees) at 5 MPH (4 knots; 2.1 m/s)
Visibility: 6 or more miles (10+ km)
Ceiling: ceiling and visibility are OK
Clouds: unknown
Weather: no significant weather observed at this time

METAR text: LEBB 251200Z VRB04KT CAVOK 14/06 Q1017 NOSIG
Conditions at: LEBB (BILBAO/SONDICA , ES) observed 1200 UTC 25 January 2020
Temperature: 14.0°C (57°F)
Dewpoint: 6.0°C (43°F) [RH = 58%]
Pressure (altimeter): 30.03 inches Hg (1017.0 mb)
Winds: variable direction winds at 5 MPH (4 knots; 2.1 m/s)
Visibility: 6 or more miles (10+ km)
Ceiling: ceiling and visibility are OK
Clouds: unknown
Weather: no significant weather observed at this time

METAR text: LEBB 251130Z 09006KT 060V160 CAVOK 13/07 Q1018 NOSIG
Conditions at: LEBB (BILBAO/SONDICA , ES) observed 1130 UTC 25 January 2020
Temperature: 13.0°C (55°F)
Dewpoint: 7.0°C (45°F) [RH = 67%]
Pressure (altimeter): 30.06 inches Hg (1018.0 mb)
Winds: from the E (90 degrees) at 7 MPH (6 knots; 3.1 m/s)
Visibility: 6 or more miles (10+ km)
Ceiling: ceiling and visibility are OK
Clouds: unknown
Weather: no significant weather observed at this time

METAR text: LEBB 251100Z 11008KT 080V160 CAVOK 13/06 Q1018 NOSIG
Conditions at: LEBB (BILBAO/SONDICA , ES) observed 1100 UTC 25 January 2020
Temperature: 13.0°C (55°F)
Dewpoint: 6.0°C (43°F) [RH = 62%]
Pressure (altimeter): 30.06 inches Hg (1018.0 mb)
Winds: from the ESE (110 degrees) at 9 MPH (8 knots; 4.1 m/s)
Visibility: 6 or more miles (10+ km)
Ceiling: ceiling and visibility are OK
Clouds: unknown
Weather: no significant weather observed at this time

METAR text: LEBB 251030Z 11006KT 080V150 CAVOK 13/06 Q1018 NOSIG
Conditions at: LEBB (BILBAO/SONDICA , ES) observed 1030 UTC 25 January 2020
Temperature: 13.0°C (55°F)
Dewpoint: 6.0°C (43°F) [RH = 62%]
Pressure (altimeter): 30.06 inches Hg (1018.0 mb)
Winds: from the ESE (110 degrees) at 7 MPH (6 knots; 3.1 m/s)
Visibility: 6 or more miles (10+ km)
Ceiling: ceiling and visibility are OK
Clouds: unknown
Weather: no significant weather observed at this time

METAR text: LEBB 251000Z 11005KT 070V140 CAVOK 12/06 Q1018 NOSIG
Conditions at: LEBB (BILBAO/SONDICA , ES) observed 1000 UTC 25 January 2020
Temperature: 12.0°C (54°F)
Dewpoint: 6.0°C (43°F) [RH = 67%]
Pressure (altimeter): 30.06 inches Hg (1018.0 mb)
Winds: from the ESE (110 degrees) at 6 MPH (5 knots; 2.6 m/s)
Visibility: 6 or more miles (10+ km)
Ceiling: ceiling and visibility are OK
Clouds: unknown
Weather: no significant weather observed at this time

METAR text: LEBB 250930Z VRB02KT CAVOK 11/06 Q1018 NOSIG
Conditions at: LEBB (BILBAO/SONDICA , ES) observed 0930 UTC 25 January 2020
Temperature: 11.0°C (52°F)
Dewpoint: 6.0°C (43°F) [RH = 71%]
Pressure (altimeter): 30.06 inches Hg (1018.0 mb)
Winds: variable direction winds at 2 MPH (2 knots; 1.0 m/s)
Visibility: 6 or more miles (10+ km)
Ceiling: ceiling and visibility are OK
Clouds: unknown
Weather: no significant weather observed at this time

METAR text: LEBB 250900Z 13005KT CAVOK 10/06 Q1018 NOSIG
Conditions at: LEBB (BILBAO/SONDICA , ES) observed 0900 UTC 25 January 2020
Temperature: 10.0°C (50°F)
Dewpoint: 6.0°C (43°F) [RH = 76%]
Pressure (altimeter): 30.06 inches Hg (1018.0 mb)
Winds: from the SE (130 degrees) at 6 MPH (5 knots; 2.6 m/s)
Visibility: 6 or more miles (10+ km)
Ceiling: ceiling and visibility are OK
Clouds: unknown
Weather: no significant weather observed at this time

METAR text: LEBB 250830Z VRB01KT CAVOK 09/06 Q1018 NOSIG
Conditions at: LEBB (BILBAO/SONDICA , ES) observed 0830 UTC 25 January 2020
Temperature: 9.0°C (48°F)
Dewpoint: 6.0°C (43°F) [RH = 81%]
Pressure (altimeter): 30.06 inches Hg (1018.0 mb)
Winds: variable direction winds at 1 MPH (1 knots; 0.5 m/s)
Visibility: 6 or more miles (10+ km)
Ceiling: ceiling and visibility are OK
Clouds: unknown
Weather: no significant weather observed at this time

METAR text: LEBB 250800Z VRB01KT CAVOK 08/05 Q1018 NOSIG
Conditions at: LEBB (BILBAO/SONDICA , ES) observed 0800 UTC 25 January 2020
Temperature: 8.0°C (46°F)
Dewpoint: 5.0°C (41°F) [RH = 81%]
Pressure (altimeter): 30.06 inches Hg (1018.0 mb)
Winds: variable direction winds at 1 MPH (1 knots; 0.5 m/s)
Visibility: 6 or more miles (10+ km)
Ceiling: ceiling and visibility are OK
Clouds: unknown
Weather: no significant weather observed at this time

METAR text: LEBB 250730Z 12007KT CAVOK 08/06 Q1018 NOSIG
Conditions at: LEBB (BILBAO/SONDICA , ES) observed 0730 UTC 25 January 2020
Temperature: 8.0°C (46°F)
Dewpoint: 6.0°C (43°F) [RH = 87%]
Pressure (altimeter): 30.06 inches Hg (1018.0 mb)
Winds: from the ESE (120 degrees) at 8 MPH (7 knots; 3.6 m/s)
Visibility: 6 or more miles (10+ km)
Ceiling: ceiling and visibility are OK
Clouds: unknown
Weather: no significant weather observed at this time

METAR text: LEBB 250700Z 13005KT 080V170 CAVOK 07/05 Q1018 NOSIG
Conditions at: LEBB (BILBAO/SONDICA , ES) observed 0700 UTC 25 January 2020
Temperature: 7.0°C (45°F)
Dewpoint: 5.0°C (41°F) [RH = 87%]
Pressure (altimeter): 30.06 inches Hg (1018.0 mb)
Winds: from the SE (130 degrees) at 6 MPH (5 knots; 2.6 m/s)
Visibility: 6 or more miles (10+ km)
Ceiling: ceiling and visibility are OK
Clouds: unknown
Weather: no significant weather observed at this time

METAR text: LEBB 250630Z 00000KT CAVOK 08/05 Q1017 NOSIG
Conditions at: LEBB (BILBAO/SONDICA , ES) observed 0630 UTC 25 January 2020
Temperature: 8.0°C (46°F)
Dewpoint: 5.0°C (41°F) [RH = 81%]
Pressure (altimeter): 30.03 inches Hg (1017.0 mb)
Winds: calm
Visibility: 6 or more miles (10+ km)
Ceiling: ceiling and visibility are OK
Clouds: unknown
Weather: no significant weather observed at this time

METAR text: LEBB 250600Z 11003KT 080V140 CAVOK 08/06 Q1017 NOSIG
Conditions at: LEBB (BILBAO/SONDICA , ES) observed 0600 UTC 25 January 2020
Temperature: 8.0°C (46°F)
Dewpoint: 6.0°C (43°F) [RH = 87%]
Pressure (altimeter): 30.03 inches Hg (1017.0 mb)
Winds: from the ESE (110 degrees) at 3 MPH (3 knots; 1.5 m/s)
Visibility: 6 or more miles (10+ km)
Ceiling: ceiling and visibility are OK
Clouds: unknown
Weather: no significant weather observed at this time

METAR text: LEBB 250530Z 14002KT CAVOK 07/05 Q1017 NOSIG
Conditions at: LEBB (BILBAO/SONDICA , ES) observed 0530 UTC 25 January 2020
Temperature: 7.0°C (45°F)
Dewpoint: 5.0°C (41°F) [RH = 87%]
Pressure (altimeter): 30.03 inches Hg (1017.0 mb)
Winds: from the SE (140 degrees) at 2 MPH (2 knots; 1.0 m/s)
Visibility: 6 or more miles (10+ km)
Ceiling: ceiling and visibility are OK
Clouds: unknown
Weather: no significant weather observed at this time

METAR text: LEBB 250500Z 14004KT 100V190 CAVOK 08/06 Q1017 NOSIG
Conditions at: LEBB (BILBAO/SONDICA , ES) observed 0500 UTC 25 January 2020
Temperature: 8.0°C (46°F)
Dewpoint: 6.0°C (43°F) [RH = 87%]
Pressure (altimeter): 30.03 inches Hg (1017.0 mb)
Winds: from the SE (140 degrees) at 5 MPH (4 knots; 2.1 m/s)
Visibility: 6 or more miles (10+ km)
Ceiling: ceiling and visibility are OK
Clouds: unknown
Weather: no significant weather observed at this time

METAR text: LEBB 250430Z VRB01KT CAVOK 09/06 Q1017 NOSIG
Conditions at: LEBB (BILBAO/SONDICA , ES) observed 0430 UTC 25 January 2020
Temperature: 9.0°C (48°F)
Dewpoint: 6.0°C (43°F) [RH = 81%]
Pressure (altimeter): 30.03 inches Hg (1017.0 mb)
Winds: variable direction winds at 1 MPH (1 knots; 0.5 m/s)
Visibility: 6 or more miles (10+ km)
Ceiling: ceiling and visibility are OK
Clouds: unknown
Weather: no significant weather observed at this time

METAR text: LEBB 250400Z VRB02KT CAVOK 09/06 Q1017 NOSIG
Conditions at: LEBB (BILBAO/SONDICA , ES) observed 0400 UTC 25 January 2020
Temperature: 9.0°C (48°F)
Dewpoint: 6.0°C (43°F) [RH = 81%]
Pressure (altimeter): 30.03 inches Hg (1017.0 mb)
Winds: variable direction winds at 2 MPH (2 knots; 1.0 m/s)
Visibility: 6 or more miles (10+ km)
Ceiling: ceiling and visibility are OK
Clouds: unknown
Weather: no significant weather observed at this time

METAR text: LEBB 250330Z AUTO 10003KT 060V170 CAVOK 09/06 Q1017
Conditions at: LEBB (BILBAO/SONDICA , ES) observed 0330 UTC 25 January 2020
Temperature: 9.0°C (48°F)
Dewpoint: 6.0°C (43°F) [RH = 81%]
Pressure (altimeter): 30.03 inches Hg (1017.0 mb)
Winds: from the E (100 degrees) at 3 MPH (3 knots; 1.5 m/s)
Visibility: 6 or more miles (10+ km)
Ceiling: ceiling and visibility are OK
Clouds: unknown
Weather: no significant weather observed at this time

METAR text: LEBB 250300Z AUTO VRB02KT CAVOK 09/06 Q1018
Conditions at: LEBB (BILBAO/SONDICA , ES) observed 0300 UTC 25 January 2020
Temperature: 9.0°C (48°F)
Dewpoint: 6.0°C (43°F) [RH = 81%]
Pressure (altimeter): 30.06 inches Hg (1018.0 mb)
Winds: variable direction winds at 2 MPH (2 knots; 1.0 m/s)
Visibility: 6 or more miles (10+ km)
Ceiling: ceiling and visibility are OK
Clouds: unknown
Weather: no significant weather observed at this time

METAR text: LEBB 250230Z AUTO VRB02KT CAVOK 10/06 Q1018
Conditions at: LEBB (BILBAO/SONDICA , ES) observed 0230 UTC 25 January 2020
Temperature: 10.0°C (50°F)
Dewpoint: 6.0°C (43°F) [RH = 76%]
Pressure (altimeter): 30.06 inches Hg (1018.0 mb)
Winds: variable direction winds at 2 MPH (2 knots; 1.0 m/s)
Visibility: 6 or more miles (10+ km)
Ceiling: ceiling and visibility are OK
Clouds: unknown
Weather: no significant weather observed at this time

METAR text: LEBB 250200Z AUTO 10005KT 070V140 CAVOK 10/06 Q1018
Conditions at: LEBB (BILBAO/SONDICA , ES) observed 0200 UTC 25 January 2020
Temperature: 10.0°C (50°F)
Dewpoint: 6.0°C (43°F) [RH = 76%]
Pressure (altimeter): 30.06 inches Hg (1018.0 mb)
Winds: from the E (100 degrees) at 6 MPH (5 knots; 2.6 m/s)
Visibility: 6 or more miles (10+ km)
Ceiling: ceiling and visibility are OK
Clouds: unknown
Weather: no significant weather observed at this time

METAR text: LEBB 250130Z AUTO 11006KT 080V140 CAVOK 10/05 Q1018
Conditions at: LEBB (BILBAO/SONDICA , ES) observed 0130 UTC 25 January 2020
Temperature: 10.0°C (50°F)
Dewpoint: 5.0°C (41°F) [RH = 71%]
Pressure (altimeter): 30.06 inches Hg (1018.0 mb)
Winds: from the ESE (110 degrees) at 7 MPH (6 knots; 3.1 m/s)
Visibility: 6 or more miles (10+ km)
Ceiling: ceiling and visibility are OK
Clouds: unknown
Weather: no significant weather observed at this time

METAR text: LEBB 250100Z AUTO 13006KT 080V170 CAVOK 10/06 Q1018
Conditions at: LEBB (BILBAO/SONDICA , ES) observed 0100 UTC 25 January 2020
Temperature: 10.0°C (50°F)
Dewpoint: 6.0°C (43°F) [RH = 76%]
Pressure (altimeter): 30.06 inches Hg (1018.0 mb)
Winds: from the SE (130 degrees) at 7 MPH (6 knots; 3.1 m/s)
Visibility: 6 or more miles (10+ km)
Ceiling: ceiling and visibility are OK
Clouds: unknown
Weather: no significant weather observed at this time

METAR text: LEBB 250030Z AUTO 09005KT 070V140 9999 SCT070 10/06 Q1018
Conditions at: LEBB (BILBAO/SONDICA , ES) observed 0030 UTC 25 January 2020
Temperature: 10.0°C (50°F)
Dewpoint: 6.0°C (43°F) [RH = 76%]
Pressure (altimeter): 30.06 inches Hg (1018.0 mb)
Winds: from the E (90 degrees) at 6 MPH (5 knots; 2.6 m/s)
Visibility: 6 or more miles (10+ km)
Ceiling: at least 12,000 feet AGL
Clouds: scattered clouds at 7000 feet AGL
Weather: no significant weather observed at this time

METAR text: LEBB 250000Z AUTO 13005KT 080V200 9999 FEW069 09/05 Q1018
Conditions at: LEBB (BILBAO/SONDICA , ES) observed 0000 UTC 25 January 2020
Temperature: 9.0°C (48°F)
Dewpoint: 5.0°C (41°F) [RH = 76%]
Pressure (altimeter): 30.06 inches Hg (1018.0 mb)
Winds: from the SE (130 degrees) at 6 MPH (5 knots; 2.6 m/s)
Visibility: 6 or more miles (10+ km)
Ceiling: at least 12,000 feet AGL
Clouds: few clouds at 6900 feet AGL
Weather: no significant weather observed at this time

METAR text: LEBB 242330Z AUTO 00000KT CAVOK 10/05 Q1019
Conditions at: LEBB (BILBAO/SONDICA , ES) observed 2330 UTC 24 January 2020
Temperature: 10.0°C (50°F)
Dewpoint: 5.0°C (41°F) [RH = 71%]
Pressure (altimeter): 30.09 inches Hg (1019.0 mb)
Winds: calm
Visibility: 6 or more miles (10+ km)
Ceiling: ceiling and visibility are OK
Clouds: unknown
Weather: no significant weather observed at this time

METAR text: LEBB 242300Z VRB02KT 9999 FEW068 10/05 Q1019 NOSIG
Conditions at: LEBB (BILBAO/SONDICA , ES) observed 2300 UTC 24 January 2020
Temperature: 10.0°C (50°F)
Dewpoint: 5.0°C (41°F) [RH = 71%]
Pressure (altimeter): 30.09 inches Hg (1019.0 mb)
Winds: variable direction winds at 2 MPH (2 knots; 1.0 m/s)
Visibility: 6 or more miles (10+ km)
Ceiling: at least 12,000 feet AGL
Clouds: few clouds at 6800 feet AGL
Weather: no significant weather observed at this time

METAR text: LEBB 242230Z 12003KT 070V140 9999 FEW068 12/06 Q1019 NOSIG
Conditions at: LEBB (BILBAO/SONDICA , ES) observed 2230 UTC 24 January 2020
Temperature: 12.0°C (54°F)
Dewpoint: 6.0°C (43°F) [RH = 67%]
Pressure (altimeter): 30.09 inches Hg (1019.0 mb)
Winds: from the ESE (120 degrees) at 3 MPH (3 knots; 1.5 m/s)
Visibility: 6 or more miles (10+ km)
Ceiling: at least 12,000 feet AGL
Clouds: few clouds at 6800 feet AGL
Weather: no significant weather observed at this time

METAR text: LEBB 242200Z 13004KT 080V170 9999 SCT070 11/06 Q1019 NOSIG
Conditions at: LEBB (BILBAO/SONDICA , ES) observed 2200 UTC 24 January 2020
Temperature: 11.0°C (52°F)
Dewpoint: 6.0°C (43°F) [RH = 71%]
Pressure (altimeter): 30.09 inches Hg (1019.0 mb)
Winds: from the SE (130 degrees) at 5 MPH (4 knots; 2.1 m/s)
Visibility: 6 or more miles (10+ km)
Ceiling: at least 12,000 feet AGL
Clouds: scattered clouds at 7000 feet AGL
Weather: no significant weather observed at this time

METAR text: LEBB 242130Z 10006KT 9999 FEW070 11/06 Q1019 NOSIG
Conditions at: LEBB (BILBAO/SONDICA , ES) observed 2130 UTC 24 January 2020
Temperature: 11.0°C (52°F)
Dewpoint: 6.0°C (43°F) [RH = 71%]
Pressure (altimeter): 30.09 inches Hg (1019.0 mb)
Winds: from the E (100 degrees) at 7 MPH (6 knots; 3.1 m/s)
Visibility: 6 or more miles (10+ km)
Ceiling: at least 12,000 feet AGL
Clouds: few clouds at 7000 feet AGL
Weather: no significant weather observed at this time

METAR text: LEBB 242100Z 12005KT 080V140 9999 FEW065 11/06 Q1019 NOSIG
Conditions at: LEBB (BILBAO/SONDICA , ES) observed 2100 UTC 24 January 2020
Temperature: 11.0°C (52°F)
Dewpoint: 6.0°C (43°F) [RH = 71%]
Pressure (altimeter): 30.09 inches Hg (1019.0 mb)
Winds: from the ESE (120 degrees) at 6 MPH (5 knots; 2.6 m/s)
Visibility: 6 or more miles (10+ km)
Ceiling: at least 12,000 feet AGL
Clouds: few clouds at 6500 feet AGL
Weather: no significant weather observed at this time

Forecast for: AMD
Text: TAF AMD LEBB 260811Z 2608/2706 12006KT 9999 SCT060 TX16/2614Z TN05/2608Z
Forecast period: 0800 UTC 26 January 2020 to 0600 UTC 27 January 2020
Forecast type: FROM: standard forecast or significant change
Winds: from the ESE (120 degrees) at 7 MPH (6 knots; 3.1 m/s)
Visibility: 6 or more miles 10+ km)
Ceiling: at least 12,000 feet AGL
Clouds: scattered clouds at 6000 feet AGL
Weather: no significant weather forecast for this period
Text: TEMPO 2608/2609 3000 BR BCFG
Forecast period: 0800 to 0900 UTC 26 January 2020
Forecast type: TEMPORARY: The following changes expected for less than half the time period
Visibility: 1.86 miles (2.99 km)
Ceiling: unknown
Clouds: missing
Weather: BR BCFG  (mist, patches of fog)
Text: TEMPO 2608/2609 0350 FG BKN001
Forecast period: 0800 to 0900 UTC 26 January 2020
Forecast type: TEMPORARY: The following changes expected for less than half the time period
Visibility: 0.22 miles (0.35 km)
Ceiling: 100 feet AGL
Clouds: broken clouds at 100 feet AGL
Weather: FG  (fog)
Text: TEMPO 2609/2624 20010KT
Forecast period: 0900 UTC 26 January 2020 to 0000 UTC 27 January 2020
Forecast type: TEMPORARY: The following changes expected for less than half the time period
Winds: from the SSW (200 degrees) at 12 MPH (10 knots; 5.1 m/s)
Visibility: missing
Ceiling: unknown
Clouds: missing
Weather: no significant weather forecast for this period